Time;durP1;ratioP1;P1;durP2;ratioP2;P2;SDS_P1;SDS_P2;PMS_P1;PMS_P2;Temp;Humidity;BMP_temperature;BMP_pressure;BME280_temperature;BME280_humidity;BME280_pressure;Samples;Min_cycle;Max_cycle;Signal;HPM_P1;HPM_P2
2023/09/07 06:56:11;;;;;;;9.73;8.63;;;;;;;18.29;100.00;101746.94;5087767;27;20393;-68
2023/09/07 06:58:36;;;;;;;13.02;9.27;;;;;;;18.33;100.00;101748.09;5071840;28;20035;-68
2023/09/07 07:01:04;;;;;;;14.20;9.43;;;;;;;18.34;100.00;101747.81;5087998;28;20028;-68
2023/09/07 07:03:30;;;;;;;11.00;8.50;;;;;;;18.48;100.00;101744.66;5089925;28;20063;-68
2023/09/07 07:05:56;;;;;;;10.30;8.23;;;;;;;18.56;100.00;101742.31;5090001;28;20020;-68
2023/09/07 07:08:22;;;;;;;9.85;8.60;;;;;;;18.60;100.00;101743.47;5089677;28;20070;-68
2023/09/07 07:10:47;;;;;;;9.98;8.68;;;;;;;18.71;100.00;101754.53;5089980;28;20038;-68
2023/09/07 07:13:13;;;;;;;11.25;8.27;;;;;;;18.77;100.00;101748.03;5089683;28;20028;-68
2023/09/07 07:15:38;;;;;;;11.25;8.52;;;;;;;18.88;100.00;101744.31;5089044;28;20028;-68
2023/09/07 07:18:08;;;;;;;13.80;7.72;;;;;;;18.95;100.00;101758.66;5089827;28;20060;-68
2023/09/07 07:20:43;;;;;;;11.35;7.47;;;;;;;19.04;100.00;101756.28;5089741;28;20071;-68
2023/09/07 07:23:09;;;;;;;13.88;7.57;;;;;;;19.07;100.00;101758.50;5089516;28;20020;-68
2023/09/07 07:25:34;;;;;;;9.60;7.28;;;;;;;19.15;100.00;101745.41;5089575;28;20081;-68
2023/09/07 07:28:03;;;;;;;11.48;7.63;;;;;;;19.18;100.00;101750.38;5089471;28;20039;-69
2023/09/07 07:30:31;;;;;;;9.88;7.80;;;;;;;19.27;100.00;101746.88;5089255;28;20066;-68
2023/09/07 07:32:56;;;;;;;8.18;6.93;;;;;;;19.36;100.00;101754.63;5089507;28;20078;-68
2023/09/07 07:35:22;;;;;;;9.85;7.32;;;;;;;19.45;100.00;101747.56;5089140;28;20017;-68
2023/09/07 07:37:49;;;;;;;9.50;6.50;;;;;;;19.52;100.00;101750.91;5089798;28;20550;-68
2023/09/07 07:40:14;;;;;;;12.88;6.55;;;;;;;19.61;100.00;101749.34;5089447;28;20031;-68
2023/09/07 07:42:40;;;;;;;10.18;6.75;;;;;;;19.67;100.00;101752.91;5089164;28;20447;-68
2023/09/07 07:45:06;;;;;;;16.33;6.75;;;;;;;19.75;100.00;101751.63;5089211;28;20363;-68
2023/09/07 07:47:31;;;;;;;10.88;6.13;;;;;;;19.81;100.00;101753.34;5070824;28;20056;-68
2023/09/07 07:49:56;;;;;;;9.07;6.05;;;;;;;19.90;100.00;101751.75;5089206;28;20416;-68
2023/09/07 07:52:22;;;;;;;9.10;5.40;;;;;;;19.96;100.00;101752.59;5070685;28;20031;-68
2023/09/07 07:54:47;;;;;;;8.38;5.50;;;;;;;20.03;100.00;101746.84;5089087;28;20045;-68
2023/09/07 07:57:12;;;;;;;5.95;5.32;;;;;;;20.09;100.00;101738.34;5089090;28;20024;-68
2023/09/07 07:59:38;;;;;;;5.88;5.22;;;;;;;20.21;100.00;101738.13;5088838;28;20022;-68
2023/09/07 08:02:03;;;;;;;8.98;5.57;;;;;;;20.30;100.00;101746.69;5086406;28;20030;-68
2023/09/07 08:04:29;;;;;;;6.18;5.10;;;;;;;20.26;100.00;101737.31;5088736;28;20158;-68
2023/09/07 08:06:58;;;;;;;7.15;5.50;;;;;;;20.32;100.00;101736.25;5078894;28;20056;-68
2023/09/07 08:09:23;;;;;;;7.40;5.35;;;;;;;20.34;100.00;101734.91;5075204;28;20048;-68
2023/09/07 08:11:48;;;;;;;7.68;5.30;;;;;;;20.45;100.00;101729.44;5075317;28;20020;-68
2023/09/07 08:14:14;;;;;;;8.75;5.40;;;;;;;20.56;100.00;101738.53;5075140;28;20017;-68
2023/09/07 08:16:39;;;;;;;8.07;5.20;;;;;;;20.59;100.00;101729.75;5074965;28;20356;-68
2023/09/07 08:19:04;;;;;;;9.05;5.25;;;;;;;20.68;100.00;101734.50;5075144;28;20026;-68
2023/09/07 08:21:30;;;;;;;5.65;5.03;;;;;;;20.69;100.00;101727.88;5074663;28;20031;-68
2023/09/07 08:23:55;;;;;;;6.85;4.60;;;;;;;20.75;100.00;101727.91;5075063;28;20031;-68
2023/09/07 08:26:21;;;;;;;9.40;5.00;;;;;;;20.80;100.00;101725.13;5074990;28;20025;-68
2023/09/07 08:28:46;;;;;;;9.63;4.80;;;;;;;20.87;100.00;101720.22;5074779;28;20028;-68
2023/09/07 08:31:14;;;;;;;7.15;4.82;;;;;;;20.91;100.00;101715.81;5074846;28;20020;-68
2023/09/07 08:33:40;;;;;;;10.02;4.63;;;;;;;20.98;100.00;101715.53;5074362;28;20047;-68
2023/09/07 08:36:05;;;;;;;6.00;4.25;;;;;;;21.08;100.00;101715.53;5074780;28;20428;-68
2023/09/07 08:38:31;;;;;;;10.10;4.50;;;;;;;21.16;100.00;101714.16;5074505;28;20028;-68
2023/09/07 08:41:04;;;;;;;7.45;4.35;;;;;;;21.20;100.00;101718.03;5056733;28;20030;-68
2023/09/07 08:43:34;;;;;;;8.48;4.45;;;;;;;21.32;100.00;101712.25;5074530;28;20081;-68
2023/09/07 08:46:11;;;;;;;5.53;4.30;;;;;;;21.36;100.00;101716.06;5074651;28;20444;-68
2023/09/07 08:48:37;;;;;;;7.90;4.05;;;;;;;21.48;100.00;101721.28;5074209;28;20040;-68
2023/09/07 08:51:03;;;;;;;6.68;3.90;;;;;;;21.49;100.00;101714.69;5074885;28;20167;-68
2023/09/07 08:53:31;;;;;;;6.45;4.10;;;;;;;21.65;100.00;101712.75;5074581;28;20030;-68
2023/09/07 08:55:56;;;;;;;7.60;4.03;;;;;;;21.62;100.00;101714.16;5056307;28;20079;-68
2023/09/07 08:58:22;;;;;;;10.93;4.10;;;;;;;21.75;100.00;101702.53;5074122;28;20114;-68
2023/09/07 09:00:49;;;;;;;6.63;3.88;;;;;;;21.87;100.00;101701.41;5053582;28;20028;-68
2023/09/07 09:03:14;;;;;;;7.93;3.90;;;;;;;21.91;100.00;101706.06;5074371;28;20024;-68
2023/09/07 09:05:41;;;;;;;7.38;3.90;;;;;;;21.98;100.00;101703.00;5074368;28;20066;-68
2023/09/07 09:08:06;;;;;;;6.45;3.63;;;;;;;22.06;100.00;101702.44;5073876;28;20375;-68
2023/09/07 09:10:32;;;;;;;9.10;4.00;;;;;;;22.15;100.00;101710.09;5073951;28;20025;-68
2023/09/07 09:12:59;;;;;;;7.00;3.90;;;;;;;22.25;100.00;101705.38;5056155;28;20028;-68
2023/09/07 09:15:26;;;;;;;8.80;3.55;;;;;;;22.37;100.00;101702.31;5074043;28;20108;-68
2023/09/07 09:17:53;;;;;;;4.93;3.60;;;;;;;22.36;100.00;101706.19;5073018;28;20028;-68
2023/09/07 09:20:26;;;;;;;4.40;3.47;;;;;;;22.42;100.00;101709.72;5074034;28;20024;-67
2023/09/07 09:22:53;;;;;;;4.90;3.60;;;;;;;22.51;100.00;101707.19;5075365;28;20064;-67
2023/09/07 09:25:19;;;;;;;9.15;4.00;;;;;;;22.60;96.77;101702.72;5074477;28;20362;-68
2023/09/07 09:27:44;;;;;;;7.68;3.50;;;;;;;22.73;88.86;101696.56;5073621;28;20017;-68
2023/09/07 09:30:10;;;;;;;9.63;3.20;;;;;;;22.74;94.97;101706.50;5073884;28;20032;-68
2023/09/07 09:32:35;;;;;;;9.85;3.67;;;;;;;22.83;93.53;101698.44;5055553;28;20059;-68
2023/09/07 09:35:05;;;;;;;7.63;3.30;;;;;;;22.94;87.90;101697.22;5073553;28;20363;-68
2023/09/07 09:37:31;;;;;;;7.20;3.38;;;;;;;23.08;88.45;101691.06;5055456;28;20028;-68
2023/09/07 09:40:00;;;;;;;7.40;3.70;;;;;;;23.12;87.31;101689.41;5073537;28;20024;-68
2023/09/07 09:42:26;;;;;;;5.22;3.47;;;;;;;23.16;93.24;101683.00;5073498;28;20046;-68
2023/09/07 09:44:52;;;;;;;6.72;3.42;;;;;;;23.22;87.91;101683.78;5073226;28;20067;-68
2023/09/07 09:47:18;;;;;;;4.70;3.15;;;;;;;23.29;83.58;101688.97;5055562;28;20025;-68
2023/09/07 09:49:45;;;;;;;7.60;3.65;;;;;;;23.46;88.07;101692.13;5073453;28;20025;-68
2023/09/07 09:52:12;;;;;;;10.73;3.38;;;;;;;23.50;82.27;101690.41;5073347;28;20029;-67
2023/09/07 09:54:38;;;;;;;6.63;3.33;;;;;;;23.46;78.27;101683.00;5072891;28;20414;-68
2023/09/07 09:57:04;;;;;;;5.82;3.40;;;;;;;23.59;77.28;101692.53;5073579;28;20024;-68
2023/09/07 09:59:29;;;;;;;6.60;3.30;;;;;;;23.60;73.55;101683.97;5073252;28;20427;-68
2023/09/07 10:01:56;;;;;;;6.30;3.28;;;;;;;23.76;79.26;101687.34;5070817;28;20031;-68
2023/09/07 10:04:22;;;;;;;8.75;3.33;;;;;;;23.90;75.04;101684.75;5072779;28;20371;-68
2023/09/07 10:06:55;;;;;;;5.10;3.13;;;;;;;23.96;75.39;101679.97;5072903;28;20032;-68
2023/09/07 10:09:20;;;;;;;7.45;3.50;;;;;;;24.07;71.96;101681.50;5072729;28;20464;-68
2023/09/07 10:11:53;;;;;;;7.40;3.20;;;;;;;24.08;71.22;101693.38;5073161;28;20039;-68
2023/09/07 10:14:18;;;;;;;10.55;3.40;;;;;;;24.16;74.80;101685.25;5073015;28;20056;-69
2023/09/07 10:16:52;;;;;;;4.97;3.00;;;;;;;24.21;75.20;101674.09;5072694;28;20025;-68
2023/09/07 10:19:18;;;;;;;5.10;3.40;;;;;;;24.39;74.65;101677.19;5073202;28;20024;-68
2023/09/07 10:21:44;;;;;;;3.70;2.92;;;;;;;24.42;73.21;101676.59;5072659;28;20024;-69
2023/09/07 10:24:10;;;;;;;9.00;3.00;;;;;;;24.51;71.48;101673.97;5072867;28;20025;-68
2023/09/07 10:26:36;;;;;;;11.55;3.05;;;;;;;24.59;67.19;101674.16;5072648;28;20052;-68
2023/09/07 10:29:05;;;;;;;3.83;2.80;;;;;;;24.65;68.09;101669.34;5072348;28;20063;-68
2023/09/07 10:31:31;;;;;;;7.35;3.13;;;;;;;24.79;68.06;101672.19;5072745;28;20020;-68
2023/09/07 10:33:56;;;;;;;6.00;3.20;;;;;;;24.86;70.27;101672.59;5054192;28;20066;-68
2023/09/07 10:36:26;;;;;;;14.98;3.28;;;;;;;24.92;69.07;101671.38;5072697;28;20554;-68
2023/09/07 10:38:54;;;;;;;6.45;2.90;;;;;;;24.93;64.78;101667.50;5072440;28;20025;-68
2023/09/07 10:41:19;;;;;;;5.00;3.05;;;;;;;25.05;65.29;101663.44;5072639;28;20353;-68
2023/09/07 10:43:48;;;;;;;4.57;3.20;;;;;;;25.12;65.18;101664.69;5072400;28;20102;-68
2023/09/07 10:46:14;;;;;;;7.18;3.30;;;;;;;25.25;70.33;101654.75;5072563;28;20024;-68
2023/09/07 10:48:40;;;;;;;8.20;3.35;;;;;;;25.32;67.70;101650.78;5054381;28;20074;-67
2023/09/07 10:51:06;;;;;;;8.15;3.13;;;;;;;25.29;63.41;101655.81;5054670;28;20017;-68
2023/09/07 10:53:32;;;;;;;8.15;3.08;;;;;;;25.44;62.97;101651.13;5072274;28;20035;-69
2023/09/07 10:56:01;;;;;;;7.55;3.50;;;;;;;25.52;63.00;101652.38;5072312;28;20058;-68
2023/09/07 10:58:29;;;;;;;7.55;3.15;;;;;;;25.57;63.03;101655.84;5054211;28;20025;-68
2023/09/07 11:00:56;;;;;;;3.70;2.72;;;;;;;25.68;61.36;101648.16;5051697;28;20475;-68
2023/09/07 11:03:21;;;;;;;9.13;3.10;;;;;;;25.78;61.06;101642.38;5072504;28;20102;-68
2023/09/07 11:05:48;;;;;;;3.17;2.80;;;;;;;25.72;60.43;101643.63;5071877;28;20545;-69
2023/09/07 11:08:14;;;;;;;7.03;3.08;;;;;;;25.84;62.54;101643.09;5072391;28;20029;-68
2023/09/07 11:10:39;;;;;;;5.05;2.75;;;;;;;25.99;61.38;101644.75;5072167;28;20069;-68
2023/09/07 11:13:05;;;;;;;5.80;3.13;;;;;;;26.12;59.32;101654.19;5072348;28;20032;-68
2023/09/07 11:15:31;;;;;;;6.15;2.70;;;;;;;26.01;59.87;101650.81;5054316;28;20032;-68
2023/09/07 11:17:57;;;;;;;7.43;3.10;;;;;;;26.14;58.30;101638.88;5072088;28;20062;-68
2023/09/07 11:20:24;;;;;;;5.60;3.10;;;;;;;26.23;58.10;101641.72;5072266;28;20448;-68
2023/09/07 11:22:49;;;;;;;7.13;2.80;;;;;;;26.32;57.42;101642.63;5054121;28;20375;-69
2023/09/07 11:25:15;;;;;;;3.78;3.00;;;;;;;26.44;57.21;101646.81;5072540;28;20032;-69
2023/09/07 11:27:40;;;;;;;7.05;3.15;;;;;;;26.46;57.44;101636.22;5071987;28;20064;-69
2023/09/07 11:30:07;;;;;;;8.85;3.42;;;;;;;26.51;56.89;101644.41;5071922;28;20020;-68
2023/09/07 11:32:38;;;;;;;4.07;2.85;;;;;;;26.64;57.67;101631.63;5072239;28;20078;-69
2023/09/07 11:35:07;;;;;;;2.72;2.50;;;;;;;26.67;56.07;101637.38;5072097;28;20119;-69
2023/09/07 11:37:33;;;;;;;4.70;2.78;;;;;;;26.75;56.27;101630.22;5072141;28;20025;-69
2023/09/07 11:39:58;;;;;;;4.05;2.60;;;;;;;26.80;57.83;101630.13;5071860;28;20043;-68
2023/09/07 11:42:24;;;;;;;3.92;2.65;;;;;;;26.84;55.99;101624.75;5074803;28;20059;-68
2023/09/07 11:44:49;;;;;;;4.60;2.85;;;;;;;26.91;54.88;101629.88;5075722;28;20022;-69
2023/09/07 11:47:14;;;;;;;7.82;2.97;;;;;;;26.90;54.75;101623.47;5075830;28;20431;-67
2023/09/07 11:49:40;;;;;;;8.00;2.90;;;;;;;27.11;55.63;101628.50;5075490;28;20066;-68
2023/09/07 11:52:05;;;;;;;6.35;3.10;;;;;;;27.11;53.37;101626.53;5057733;28;20032;-68
2023/09/07 11:54:31;;;;;;;7.32;3.10;;;;;;;27.15;54.66;101613.66;5075404;28;20044;-68
2023/09/07 11:56:56;;;;;;;5.97;2.97;;;;;;;27.17;53.10;101611.34;5075478;28;20098;-68
2023/09/07 11:59:21;;;;;;;6.40;3.00;;;;;;;27.28;53.38;101609.16;5075255;28;20606;-68
2023/09/07 12:01:47;;;;;;;5.70;2.97;;;;;;;27.38;53.13;101602.50;5054808;28;20028;-68
2023/09/07 12:04:12;;;;;;;4.03;2.97;;;;;;;27.53;54.53;101607.59;5078022;28;20028;-68
2023/09/07 12:06:38;;;;;;;5.50;3.08;;;;;;;27.56;52.91;101608.94;5078767;28;20025;-69
2023/09/07 12:09:09;;;;;;;4.82;2.80;;;;;;;27.63;51.25;101605.66;5075408;28;20028;-69
2023/09/07 12:11:34;;;;;;;;;;;;;;;27.64;55.73;101605.34;5075763;28;20025;-69
2023/09/07 12:13:59;;;;;;;4.43;2.87;;;;;;;27.78;51.74;101605.25;5074751;28;19927;-68
2023/09/07 12:16:28;;;;;;;4.22;2.80;;;;;;;27.69;50.51;101609.94;5057243;28;20402;-69
2023/09/07 12:18:54;;;;;;;5.60;3.00;;;;;;;27.85;51.97;101601.97;5074989;28;20048;-69
2023/09/07 12:21:20;;;;;;;6.05;2.65;;;;;;;27.95;51.48;101598.88;5074841;28;20052;-68
2023/09/07 12:23:45;;;;;;;4.88;3.15;;;;;;;28.02;49.52;101596.47;5074708;28;20021;-68
2023/09/07 12:26:12;;;;;;;7.55;2.75;;;;;;;28.10;48.32;101598.41;5075167;28;20042;-68
2023/09/07 12:28:38;;;;;;;5.72;2.72;;;;;;;28.14;48.59;101592.19;5075005;28;20029;-69
2023/09/07 12:31:04;;;;;;;4.03;2.83;;;;;;;28.20;48.80;101593.66;5074336;28;20127;-69
2023/09/07 12:33:30;;;;;;;6.47;3.13;;;;;;;28.31;49.49;101589.44;5074971;28;20034;-68
2023/09/07 12:35:55;;;;;;;5.60;3.05;;;;;;;28.22;48.51;101583.06;5074579;28;20103;-68
2023/09/07 12:38:24;;;;;;;9.23;2.95;;;;;;;28.39;50.00;101593.34;5074873;28;20051;-68
2023/09/07 12:40:49;;;;;;;5.18;2.97;;;;;;;28.41;48.78;101586.31;5074378;28;20013;-69
2023/09/07 12:43:15;;;;;;;7.45;3.03;;;;;;;28.45;49.00;101587.28;5074560;28;20475;-68
2023/09/07 12:45:40;;;;;;;4.20;2.80;;;;;;;28.48;48.09;101590.56;5074238;28;20020;-70
2023/09/07 12:48:06;;;;;;;3.58;2.67;;;;;;;28.55;47.89;101588.06;5074692;28;20089;-68
2023/09/07 12:50:31;;;;;;;5.07;2.78;;;;;;;28.50;48.83;101583.50;5074635;28;20436;-68
2023/09/07 12:52:57;;;;;;;4.88;2.60;;;;;;;28.61;49.39;101581.22;5074267;28;20025;-68
2023/09/07 12:55:23;;;;;;;4.90;2.72;;;;;;;28.59;47.83;101575.13;5056074;28;20048;-69
2023/09/07 12:57:49;;;;;;;6.45;3.15;;;;;;;28.61;47.50;101581.22;5073959;28;20463;-69
2023/09/07 13:00:14;;;;;;;3.60;3.03;;;;;;;28.69;47.17;101579.59;5074455;28;20021;-68
2023/09/07 13:02:43;;;;;;;6.15;3.25;;;;;;;28.75;47.72;101579.06;5072016;28;20029;-68
2023/09/07 13:05:08;;;;;;;6.25;2.90;;;;;;;28.71;48.88;101569.72;5074486;28;20363;-68
2023/09/07 13:07:35;;;;;;;4.82;3.22;;;;;;;28.80;45.82;101569.72;5073984;28;20021;-68
2023/09/07 13:10:05;;;;;;;6.85;3.10;;;;;;;28.84;47.06;101567.91;5056078;28;20032;-68
2023/09/07 13:12:32;;;;;;;5.68;2.92;;;;;;;28.85;47.13;101569.50;5073960;28;20409;-69
2023/09/07 13:14:57;;;;;;;4.00;2.80;;;;;;;28.97;48.22;101569.66;5073817;28;20032;-68
2023/09/07 13:17:23;;;;;;;3.47;2.80;;;;;;;29.01;46.68;101558.66;5074385;28;20107;-68
2023/09/07 13:19:48;;;;;;;4.30;3.08;;;;;;;29.00;45.58;101562.59;5074057;28;20448;-69
2023/09/07 13:22:14;;;;;;;4.38;2.80;;;;;;;28.98;44.59;101559.31;5073733;28;20021;-68
2023/09/07 13:24:39;;;;;;;5.22;2.88;;;;;;;29.10;45.96;101553.84;5073946;28;20024;-68
2023/09/07 13:27:05;;;;;;;5.07;2.97;;;;;;;29.12;46.49;101551.56;5073615;28;20099;-68
2023/09/07 13:29:32;;;;;;;6.50;2.85;;;;;;;29.15;47.51;101545.31;5073542;28;20035;-68
2023/09/07 13:31:58;;;;;;;4.68;2.97;;;;;;;29.12;47.49;101543.22;5055563;28;20082;-68
2023/09/07 13:34:24;;;;;;;8.52;2.80;;;;;;;29.07;46.45;101545.38;5055826;28;20070;-69
2023/09/07 13:36:49;;;;;;;5.53;3.22;;;;;;;29.12;47.27;101534.84;5073374;28;20398;-69
2023/09/07 13:39:14;;;;;;;4.00;2.97;;;;;;;29.16;46.00;101538.59;5073634;28;20024;-68
2023/09/07 13:41:40;;;;;;;7.18;3.35;;;;;;;29.04;45.89;101541.28;5073427;28;20069;-69
2023/09/07 13:44:05;;;;;;;4.35;2.50;;;;;;;29.15;46.53;101542.53;5055245;28;20020;-69
2023/09/07 13:46:31;;;;;;;3.83;3.10;;;;;;;29.28;46.17;101542.66;5055612;28;20028;-68
2023/09/07 13:48:56;;;;;;;4.85;3.10;;;;;;;29.31;47.46;101533.63;5073235;28;20025;-69
2023/09/07 13:51:22;;;;;;;6.20;3.17;;;;;;;29.33;47.84;101542.47;5073470;28;20060;-68
2023/09/07 13:53:47;;;;;;;5.53;3.35;;;;;;;29.34;48.84;101539.34;5054981;28;20123;-69
2023/09/07 13:56:12;;;;;;;3.33;2.80;;;;;;;29.32;47.29;101538.03;5073348;28;20054;-69
2023/09/07 13:58:38;;;;;;;11.52;3.15;;;;;;;29.25;47.67;101538.56;5073318;28;20255;-69
2023/09/07 14:01:03;;;;;;;9.05;3.50;;;;;;;29.27;46.22;101536.25;5070502;28;20020;-69
2023/09/07 14:03:28;;;;;;;6.10;2.90;;;;;;;29.25;47.83;101523.84;5072850;28;20021;-69
2023/09/07 14:05:54;;;;;;;6.88;2.80;;;;;;;29.27;46.86;101524.31;5072735;28;20082;-70
2023/09/07 14:08:23;;;;;;;5.93;3.28;;;;;;;29.50;47.72;101531.22;5073148;28;20407;-68
2023/09/07 14:10:49;;;;;;;6.95;3.33;;;;;;;29.45;47.39;101536.97;5054906;28;20024;-68
